Time;durP1;ratioP1;P1;durP2;ratioP2;P2;SDS_P1;SDS_P2;PMS_P1;PMS_P2;Temp;Humidity;BMP_temperature;BMP_pressure;BME280_temperature;BME280_humidity;BME280_pressure;Samples;Min_cycle;Max_cycle;Signal;HPM_P1;HPM_P2
2023/01/15 00:00:46;;;;;;;0.10;0.10;;;11.00;99.90;;;;;;5060466;28;20235;-81
2023/01/15 00:03:12;;;;;;;0.10;0.10;;;11.00;99.90;;;;;;5062006;28;20212;-81
2023/01/15 00:05:37;;;;;;;0.10;0.10;;;11.00;99.90;;;;;;5061256;28;20628;-81
2023/01/15 00:08:03;;;;;;;0.10;0.10;;;11.00;99.90;;;;;;5063009;28;20203;-81
2023/01/15 00:10:30;;;;;;;0.10;0.10;;;11.10;99.90;;;;;;5064136;28;20200;-81
2023/01/15 00:12:55;;;;;;;0.10;0.10;;;11.10;99.90;;;;;;5062220;28;20200;-80
2023/01/15 00:15:21;;;;;;;0.10;0.10;;;11.10;99.90;;;;;;5063504;28;20192;-81
2023/01/15 00:17:46;;;;;;;0.10;0.10;;;11.10;99.90;;;;;;5062045;28;20195;-81
2023/01/15 00:20:12;;;;;;;0.10;0.10;;;11.10;99.90;;;;;;5061586;28;20192;-81
2023/01/15 00:22:37;;;;;;;0.10;0.10;;;11.10;99.90;;;;;;5064498;28;20204;-81
2023/01/15 00:27:48;;;;;;;0.10;0.10;;;11.10;99.90;;;;;;5064604;28;20911;-81
2023/01/15 00:30:15;;;;;;;0.00;0.00;;;11.10;99.90;;;;;;5064150;28;20267;-81
2023/01/15 00:32:41;;;;;;;0.10;0.10;;;11.10;99.90;;;;;;5064346;28;20191;-81
2023/01/15 00:35:11;;;;;;;0.10;0.10;;;11.10;99.90;;;;;;5062162;28;20193;-80
2023/01/15 00:37:37;;;;;;;0.10;0.10;;;11.10;99.90;;;;;;5062877;28;20246;-81
2023/01/15 00:40:03;;;;;;;0.10;0.10;;;11.10;99.90;;;;;;5063473;28;20717;-81
2023/01/15 00:42:28;;;;;;;0.10;0.10;;;11.00;99.90;;;;;;5062670;28;20299;-81
2023/01/15 00:44:54;;;;;;;0.10;0.10;;;11.00;99.90;;;;;;5061115;28;20659;-81
2023/01/15 00:47:19;;;;;;;0.10;0.10;;;11.00;99.90;;;;;;5060954;28;20804;-81
2023/01/15 00:49:45;;;;;;;0.10;0.10;;;11.00;99.90;;;;;;5062179;28;20187;-81
2023/01/15 00:52:11;;;;;;;0.03;0.03;;;11.00;99.90;;;;;;5063441;28;20690;-81
2023/01/15 00:54:37;;;;;;;0.10;0.10;;;11.00;99.90;;;;;;5061044;28;20185;-81
2023/01/15 00:57:02;;;;;;;0.10;0.10;;;10.80;99.90;;;;;;5062607;28;20596;-81
2023/01/15 00:59:28;;;;;;;0.10;0.10;;;10.60;99.90;;;;;;5062626;28;20243;-81
2023/01/15 01:01:53;;;;;;;0.10;0.10;;;10.50;99.90;;;;;;5061686;28;20188;-81
2023/01/15 01:04:19;;;;;;;0.00;0.00;;;10.30;99.90;;;;;;5061126;28;20295;-81
2023/01/15 01:06:45;;;;;;;0.00;0.00;;;10.30;99.90;;;;;;5060763;28;20213;-81
2023/01/15 01:09:14;;;;;;;0.10;0.10;;;10.20;99.90;;;;;;5061561;28;20601;-81
2023/01/15 01:11:39;;;;;;;0.10;0.10;;;10.20;99.90;;;;;;5062313;28;20173;-80
2023/01/15 01:14:05;;;;;;;0.10;0.10;;;10.20;99.90;;;;;;5061157;28;20566;-81
2023/01/15 01:16:37;;;;;;;0.10;0.10;;;10.10;99.90;;;;;;5059610;28;20568;-81
2023/01/15 01:19:12;;;;;;;0.10;0.10;;;10.20;99.90;;;;;;5062796;28;20215;-81
2023/01/15 01:21:39;;;;;;;0.10;0.10;;;10.10;99.90;;;;;;5060744;28;20184;-81
2023/01/15 01:24:06;;;;;;;0.10;0.10;;;10.10;99.90;;;;;;5061684;28;20259;-81
2023/01/15 01:26:32;;;;;;;0.10;0.10;;;10.10;99.90;;;;;;5060100;28;20592;-82
2023/01/15 01:28:58;;;;;;;0.10;0.10;;;10.10;99.90;;;;;;5062605;28;20198;-81
2023/01/15 01:31:24;;;;;;;0.10;0.10;;;10.10;99.90;;;;;;5059962;28;20189;-81
2023/01/15 01:33:52;;;;;;;0.10;0.10;;;10.10;99.90;;;;;;5064661;28;20180;-81
2023/01/15 01:36:18;;;;;;;0.10;0.10;;;10.10;99.90;;;;;;5065097;28;20213;-81
2023/01/15 01:38:48;;;;;;;0.10;0.10;;;10.10;99.90;;;;;;5063788;28;20283;-81
2023/01/15 01:41:14;;;;;;;0.10;0.10;;;10.10;99.90;;;;;;5067362;28;20184;-81
2023/01/15 01:44:04;;;;;;;0.00;0.00;;;10.10;99.90;;;;;;5065453;28;20185;-81
2023/01/15 01:46:33;;;;;;;0.10;0.10;;;10.20;99.90;;;;;;5065927;28;20220;-81
2023/01/15 01:49:07;;;;;;;0.10;0.10;;;10.10;99.90;;;;;;5064597;28;20190;-81
2023/01/15 01:51:41;;;;;;;0.00;0.00;;;10.20;99.90;;;;;;5064465;28;20272;-81
2023/01/15 01:54:08;;;;;;;0.00;0.00;;;10.10;99.90;;;;;;5065400;28;20188;-81
2023/01/15 01:56:35;;;;;;;0.10;0.10;;;10.10;99.90;;;;;;5074323;28;20205;-81
2023/01/15 01:59:02;;;;;;;0.10;0.10;;;10.00;99.90;;;;;;5066430;28;20849;-81
2023/01/15 02:01:27;;;;;;;0.10;0.10;;;10.00;99.90;;;;;;5063491;28;20189;-81
2023/01/15 02:03:53;;;;;;;0.10;0.10;;;10.00;99.90;;;;;;5066982;28;20207;-81
2023/01/15 02:06:19;;;;;;;0.10;0.10;;;9.70;99.90;;;;;;5065997;28;20220;-81
2023/01/15 02:08:44;;;;;;;0.10;0.10;;;9.80;99.90;;;;;;5065767;28;20184;-81
2023/01/15 02:11:20;;;;;;;0.10;0.10;;;9.70;99.90;;;;;;5064103;28;20211;-80
2023/01/15 02:14:02;;;;;;;0.10;0.10;;;9.60;99.90;;;;;;5066455;28;20177;-80
2023/01/15 02:16:51;;;;;;;0.07;0.07;;;9.60;99.90;;;;;;5064587;28;20756;-81
2023/01/15 02:19:47;;;;;;;0.10;0.10;;;9.60;99.90;;;;;;5065013;28;20173;-81
2023/01/15 02:22:45;;;;;;;0.10;0.10;;;9.50;99.90;;;;;;5065105;28;20638;-81
2023/01/15 02:25:36;;;;;;;0.10;0.10;;;9.40;99.90;;;;;;5065137;28;20212;-81
2023/01/15 02:28:39;;;;;;;0.10;0.10;;;9.20;99.90;;;;;;5056032;28;20192;-81
2023/01/15 02:31:15;;;;;;;0.00;0.00;;;9.10;99.90;;;;;;5054037;28;20296;-81
2023/01/15 02:33:50;;;;;;;0.10;0.10;;;9.00;99.90;;;;;;5064799;28;20185;-81
2023/01/15 02:36:21;;;;;;;0.03;0.03;;;8.90;99.90;;;;;;5062792;28;20249;-81
2023/01/15 02:38:48;;;;;;;0.10;0.10;;;8.90;99.90;;;;;;5063830;28;21655;-81
2023/01/15 02:41:16;;;;;;;0.10;0.10;;;8.90;99.90;;;;;;5064944;28;20190;-81
2023/01/15 02:43:45;;;;;;;0.10;0.10;;;8.90;99.90;;;;;;5065529;28;20660;-81
2023/01/15 02:46:15;;;;;;;0.03;0.03;;;8.90;99.90;;;;;;5061749;28;20265;-80
2023/01/15 02:48:41;;;;;;;0.10;0.10;;;9.00;99.90;;;;;;5063213;28;20184;-81
2023/01/15 02:51:12;;;;;;;0.00;0.00;;;8.90;99.90;;;;;;5064013;28;20271;-81
2023/01/15 02:53:41;;;;;;;0.10;0.10;;;9.00;99.90;;;;;;5064196;28;20181;-81
2023/01/15 02:56:12;;;;;;;0.10;0.10;;;8.90;99.90;;;;;;5064618;28;20207;-81
2023/01/15 02:58:40;;;;;;;0.10;0.10;;;8.90;99.90;;;;;;5066050;28;20806;-81
2023/01/15 03:01:17;;;;;;;0.10;0.10;;;9.00;99.90;;;;;;5064542;28;20187;-81
2023/01/15 03:03:55;;;;;;;0.00;0.00;;;8.90;99.90;;;;;;5071752;28;20179;-81
2023/01/15 03:06:31;;;;;;;0.10;0.10;;;8.90;99.90;;;;;;5062608;28;20224;-81
2023/01/15 03:08:57;;;;;;;0.10;0.10;;;8.90;99.90;;;;;;5063638;28;20180;-81
2023/01/15 03:11:23;;;;;;;0.10;0.10;;;8.90;99.90;;;;;;5063491;28;20195;-81
2023/01/15 03:14:03;;;;;;;0.10;0.10;;;8.90;99.90;;;;;;5063348;28;20229;-81
2023/01/15 03:17:06;;;;;;;0.00;0.00;;;8.90;99.90;;;;;;5063074;28;20332;-81
2023/01/15 03:19:40;;;;;;;0.10;0.10;;;8.80;99.90;;;;;;5064389;28;20187;-81
2023/01/15 03:22:23;;;;;;;0.00;0.00;;;8.90;99.90;;;;;;5063420;28;20183;-81
2023/01/15 03:24:53;;;;;;;0.10;0.10;;;8.90;99.90;;;;;;5062563;28;20218;-81
2023/01/15 03:27:19;;;;;;;0.03;0.03;;;8.90;99.90;;;;;;5062277;28;20212;-81
2023/01/15 03:29:49;;;;;;;0.10;0.10;;;8.90;99.90;;;;;;5063580;28;20192;-81
2023/01/15 03:32:16;;;;;;;0.10;0.10;;;8.90;99.90;;;;;;5061778;28;20185;-81
2023/01/15 03:34:54;;;;;;;0.10;0.10;;;8.90;99.90;;;;;;5062927;28;20277;-81
2023/01/15 03:37:22;;;;;;;0.10;0.10;;;8.90;99.90;;;;;;5062779;28;20218;-81
2023/01/15 03:39:48;;;;;;;0.00;0.00;;;8.90;99.90;;;;;;5061387;28;20191;-81
2023/01/15 03:42:25;;;;;;;0.10;0.10;;;8.60;99.90;;;;;;5064190;28;20191;-81
2023/01/15 03:45:00;;;;;;;0.10;0.10;;;8.10;99.90;;;;;;5061884;28;20214;-81
2023/01/15 03:47:44;;;;;;;0.10;0.10;;;7.80;99.90;;;;;;5062575;28;20244;-81
2023/01/15 03:50:49;;;;;;;0.10;0.10;;;7.60;99.90;;;;;;5060725;28;20751;-80
2023/01/15 03:53:20;;;;;;;0.10;0.10;;;7.60;99.90;;;;;;5060274;28;20174;-81
2023/01/15 03:56:26;;;;;;;0.07;0.07;;;7.40;99.90;;;;;;5060647;28;20208;-81
2023/01/15 03:58:59;;;;;;;0.10;0.10;;;7.40;99.90;;;;;;5064368;28;20219;-81
2023/01/15 04:01:31;;;;;;;0.10;0.10;;;7.40;99.90;;;;;;5061408;28;20174;-81
2023/01/15 04:03:58;;;;;;;0.10;0.10;;;7.30;99.90;;;;;;5063338;28;20175;-80
2023/01/15 04:06:27;;;;;;;0.10;0.10;;;7.40;99.90;;;;;;5062775;28;20213;-81
2023/01/15 04:08:54;;;;;;;0.10;0.10;;;7.20;99.90;;;;;;5062955;28;20199;-81
2023/01/15 04:11:25;;;;;;;0.10;0.10;;;7.20;99.90;;;;;;5062456;28;20187;-81
2023/01/15 04:13:51;;;;;;;0.10;0.10;;;7.00;99.90;;;;;;5060791;28;20181;-81
2023/01/15 04:16:26;;;;;;;0.00;0.00;;;6.90;99.90;;;;;;5060838;28;20655;-82
2023/01/15 04:18:52;;;;;;;0.00;0.00;;;6.60;99.90;;;;;;5063048;28;20711;-81
2023/01/15 04:21:18;;;;;;;0.00;0.00;;;6.60;99.90;;;;;;5061629;28;20193;-82
2023/01/15 04:23:45;;;;;;;0.10;0.10;;;6.40;99.90;;;;;;5060001;28;20210;-81
2023/01/15 04:26:11;;;;;;;0.00;0.00;;;6.50;99.90;;;;;;5061697;28;20219;-81
2023/01/15 04:28:36;;;;;;;0.10;0.10;;;6.30;99.90;;;;;;5061876;28;20201;-80
2023/01/15 04:31:02;;;;;;;0.10;0.10;;;6.40;99.90;;;;;;5059840;28;20662;-81
2023/01/15 04:33:27;;;;;;;0.10;0.10;;;6.50;99.90;;;;;;5062556;28;20193;-82
2023/01/15 04:35:53;;;;;;;0.00;0.00;;;6.50;99.90;;;;;;5061915;28;20290;-82
2023/01/15 04:38:18;;;;;;;0.07;0.07;;;6.40;99.90;;;;;;5060906;28;20197;-81
2023/01/15 04:46:13;;;;;;;0.07;0.07;;;6.80;99.90;;;;;;5062111;28;20261;-81
2023/01/15 04:48:39;;;;;;;0.10;0.10;;;6.80;99.90;;;;;;5061984;28;20547;-82
2023/01/15 04:51:05;;;;;;;0.10;0.10;;;6.90;99.90;;;;;;5061760;28;20661;-81
2023/01/15 04:53:31;;;;;;;0.10;0.10;;;6.60;99.90;;;;;;5059839;28;20181;-82
2023/01/15 04:56:02;;;;;;;0.10;0.10;;;6.70;99.90;;;;;;5062646;28;20202;-82
2023/01/15 04:58:28;;;;;;;0.10;0.10;;;6.80;99.90;;;;;;5062286;28;20197;-81
2023/01/15 05:00:53;;;;;;;0.10;0.10;;;6.90;99.90;;;;;;5061006;28;20185;-81
2023/01/15 05:03:19;;;;;;;0.10;0.10;;;7.00;99.90;;;;;;5062238;28;20181;-81
2023/01/15 05:05:44;;;;;;;0.10;0.10;;;7.00;99.90;;;;;;5060729;28;20212;-82
2023/01/15 05:08:10;;;;;;;0.10;0.10;;;7.00;99.90;;;;;;5067647;28;20176;-82
2023/01/15 05:10:35;;;;;;;0.10;0.10;;;6.70;99.90;;;;;;5068293;28;20181;-82
2023/01/15 05:13:01;;;;;;;0.10;0.10;;;6.80;99.90;;;;;;5068349;28;20735;-83
2023/01/15 05:15:26;;;;;;;0.10;0.10;;;6.80;99.90;;;;;;5067275;28;20193;-83
2023/01/15 05:17:52;;;;;;;0.10;0.10;;;6.70;99.90;;;;;;5069143;28;20187;-81
2023/01/15 05:20:17;;;;;;;0.10;0.10;;;6.80;99.90;;;;;;5066791;28;20663;-82
2023/01/15 05:22:43;;;;;;;0.00;0.00;;;6.80;99.90;;;;;;5067689;28;20193;-82
2023/01/15 05:25:09;;;;;;;0.10;0.10;;;6.90;99.90;;;;;;5066115;28;20641;-82
2023/01/15 05:27:34;;;;;;;0.10;0.10;;;6.90;99.90;;;;;;5068316;28;20539;-82
2023/01/15 05:30:00;;;;;;;0.10;0.10;;;6.90;99.90;;;;;;5068597;28;21063;-83
2023/01/15 05:32:25;;;;;;;0.10;0.10;;;7.00;99.90;;;;;;5066467;28;21018;-81
2023/01/15 05:34:51;;;;;;;0.00;0.00;;;7.00;99.90;;;;;;5067465;28;20177;-83
2023/01/15 05:37:16;;;;;;;0.10;0.10;;;7.00;99.90;;;;;;5066662;28;20243;-81
2023/01/15 05:39:42;;;;;;;0.00;0.00;;;7.00;99.90;;;;;;5066715;28;20193;-82
2023/01/15 05:42:07;;;;;;;0.10;0.10;;;7.00;99.90;;;;;;5068030;28;20208;-80
2023/01/15 05:44:33;;;;;;;0.10;0.10;;;7.00;99.90;;;;;;5066321;28;20298;-81
2023/01/15 05:47:04;;;;;;;0.07;0.07;;;7.10;99.90;;;;;;5069336;28;20353;-82
2023/01/15 05:49:30;;;;;;;0.10;0.10;;;7.10;99.90;;;;;;5067145;28;20180;-81
2023/01/15 05:51:57;;;;;;;0.10;0.10;;;7.10;99.90;;;;;;5066788;28;20184;-82
2023/01/15 05:54:26;;;;;;;0.10;0.10;;;7.00;99.90;;;;;;5066949;28;20181;-82
2023/01/15 05:56:52;;;;;;;0.10;0.10;;;7.10;99.90;;;;;;5068789;28;20192;-82
2023/01/15 05:59:19;;;;;;;0.10;0.10;;;7.10;99.90;;;;;;5066512;28;20204;-83
2023/01/15 06:01:45;;;;;;;0.10;0.10;;;7.20;99.90;;;;;;5067187;28;20246;-81
2023/01/15 06:04:14;;;;;;;0.10;0.10;;;7.10;99.90;;;;;;5068361;28;20680;-83
2023/01/15 06:06:41;;;;;;;0.10;0.10;;;7.20;99.90;;;;;;5066802;28;20618;-82
2023/01/15 06:09:07;;;;;;;0.10;0.10;;;7.20;99.90;;;;;;5066319;28;20223;-82
2023/01/15 06:11:32;;;;;;;0.10;0.10;;;7.20;99.90;;;;;;5068600;28;20177;-82
2023/01/15 06:13:58;;;;;;;0.00;0.00;;;7.20;99.90;;;;;;5066560;28;20193;-82
2023/01/15 06:16:25;;;;;;;0.10;0.10;;;7.20;99.90;;;;;;5068808;28;20216;-81
2023/01/15 06:18:50;;;;;;;0.10;0.10;;;7.00;99.90;;;;;;5064534;28;20200;-81
2023/01/15 06:21:16;;;;;;;0.10;0.10;;;7.10;99.90;;;;;;5063060;28;20224;-83
2023/01/15 06:23:42;;;;;;;0.10;0.10;;;7.10;99.90;;;;;;5063861;28;20591;-81
2023/01/15 06:26:12;;;;;;;0.10;0.10;;;7.10;99.90;;;;;;5063754;28;20219;-82
2023/01/15 06:28:38;;;;;;;0.10;0.10;;;7.20;99.90;;;;;;5064068;28;20194;-81
2023/01/15 06:31:05;;;;;;;0.10;0.10;;;7.20;99.90;;;;;;5068034;28;20695;-81
2023/01/15 06:33:31;;;;;;;0.10;0.10;;;7.10;99.90;;;;;;5074288;28;20191;-81
2023/01/15 06:35:56;;;;;;;0.10;0.10;;;7.10;99.90;;;;;;5063901;28;20220;-81
2023/01/15 06:38:22;;;;;;;0.10;0.10;;;7.10;99.90;;;;;;5065651;28;20212;-81
2023/01/15 06:40:48;;;;;;;0.00;0.00;;;7.10;99.90;;;;;;5065762;28;20240;-81
2023/01/15 06:48:42;;;;;;;0.10;0.10;;;7.10;99.90;;;;;;5066949;28;20296;-81
2023/01/15 06:51:08;;;;;;;0.10;0.10;;;7.20;99.90;;;;;;5063148;28;20264;-81
2023/01/15 06:53:33;;;;;;;0.10;0.10;;;7.20;99.90;;;;;;5064207;28;20506;-81
2023/01/15 06:56:00;;;;;;;0.10;0.10;;;7.20;99.90;;;;;;5066231;28;20225;-81
2023/01/15 06:58:26;;;;;;;0.10;0.10;;;7.20;99.90;;;;;;5063351;28;20311;-80
2023/01/15 07:00:55;;;;;;;0.10;0.10;;;7.10;99.90;;;;;;5062863;28;20273;-81
2023/01/15 07:03:22;;;;;;;0.00;0.00;;;7.20;99.90;;;;;;5064390;28;20604;-81
2023/01/15 07:05:48;;;;;;;0.10;0.10;;;7.20;99.90;;;;;;5063667;28;20225;-81
2023/01/15 07:08:13;;;;;;;0.10;0.10;;;7.20;99.90;;;;;;5065723;28;20187;-81
2023/01/15 07:10:40;;;;;;;0.10;0.10;;;7.30;99.90;;;;;;5061682;28;21182;-83
2023/01/15 07:13:06;;;;;;;0.10;0.10;;;7.30;99.90;;;;;;5065362;28;20182;-81
2023/01/15 07:15:31;;;;;;;0.10;0.10;;;7.20;99.90;;;;;;5065716;28;21144;-81
2023/01/15 07:17:57;;;;;;;0.10;0.10;;;7.20;99.90;;;;;;5067140;28;20182;-81
2023/01/15 07:20:23;;;;;;;0.10;0.10;;;7.20;99.90;;;;;;5066047;28;20623;-81
2023/01/15 07:22:52;;;;;;;0.10;0.10;;;7.20;99.90;;;;;;5066642;28;22177;-81
2023/01/15 07:25:18;;;;;;;0.00;0.00;;;7.20;99.90;;;;;;5066527;28;20203;-82
2023/01/15 07:27:46;;;;;;;0.10;0.10;;;7.10;99.90;;;;;;5067040;28;20251;-81
2023/01/15 07:30:12;;;;;;;0.10;0.10;;;7.20;99.90;;;;;;5066176;28;20205;-81
2023/01/15 07:32:37;;;;;;;0.10;0.10;;;7.20;99.90;;;;;;5066088;28;20180;-81
2023/01/15 07:35:03;;;;;;;0.10;0.10;;;7.20;99.90;;;;;;5062767;28;20705;-81
2023/01/15 07:37:28;;;;;;;0.07;0.07;;;7.00;99.90;;;;;;5064162;28;20206;-81
2023/01/15 07:39:54;;;;;;;0.10;0.10;;;7.00;99.90;;;;;;5062637;28;20179;-81
2023/01/15 07:50:32;;;;;;;0.10;0.10;;;7.20;99.90;;;;;;5064914;28;20188;-81
2023/01/15 07:52:58;;;;;;;0.10;0.10;;;7.10;99.90;;;;;;5059603;28;20194;-82
2023/01/15 07:55:24;;;;;;;0.10;0.10;;;7.20;99.90;;;;;;5062443;28;20190;-81
2023/01/15 07:57:49;;;;;;;0.10;0.10;;;7.20;99.90;;;;;;5065084;28;20188;-82
2023/01/15 08:00:19;;;;;;;0.10;0.10;;;7.20;99.90;;;;;;5059690;28;20205;-82
2023/01/15 08:02:48;;;;;;;0.10;0.10;;;7.20;99.90;;;;;;5065242;28;20192;-82
2023/01/15 08:05:14;;;;;;;0.10;0.10;;;7.20;99.90;;;;;;5062321;28;20198;-82
2023/01/15 08:07:40;;;;;;;0.10;0.10;;;7.10;99.90;;;;;;5059088;28;20255;-82
2023/01/15 08:10:07;;;;;;;0.10;0.10;;;7.10;99.90;;;;;;5062046;28;20902;-82
2023/01/15 08:15:17;;;;;;;0.10;0.10;;;7.00;99.90;;;;;;5064835;28;20205;-82
2023/01/15 08:17:45;;;;;;;0.10;0.10;;;7.00;99.90;;;;;;5062668;28;20177;-81
2023/01/15 08:20:13;;;;;;;0.10;0.10;;;6.90;99.90;;;;;;5067445;28;20222;-85
2023/01/15 08:22:39;;;;;;;0.00;0.00;;;6.80;99.90;;;;;;5067346;28;20209;-82
2023/01/15 08:25:06;;;;;;;0.10;0.10;;;6.80;99.90;;;;;;5059832;28;20247;-81
2023/01/15 08:27:32;;;;;;;0.10;0.10;;;6.80;99.90;;;;;;5064745;28;20205;-82
2023/01/15 08:29:58;;;;;;;0.10;0.10;;;6.80;99.90;;;;;;5064444;28;20190;-82
2023/01/15 08:32:24;;;;;;;0.10;0.10;;;6.80;99.90;;;;;;5064140;28;20182;-82
2023/01/15 08:34:50;;;;;;;0.10;0.10;;;6.80;99.90;;;;;;5064959;28;20184;-81
2023/01/15 08:37:16;;;;;;;0.10;0.10;;;6.80;99.90;;;;;;5066185;28;20230;-82
2023/01/15 08:39:41;;;;;;;0.10;0.10;;;6.80;99.90;;;;;;5064901;28;20723;-82
2023/01/15 08:42:07;;;;;;;0.10;0.10;;;6.80;99.90;;;;;;5064730;28;20304;-82
2023/01/15 08:44:33;;;;;;;0.10;0.10;;;6.70;99.90;;;;;;5062905;28;20909;-82
2023/01/15 08:46:58;;;;;;;0.10;0.10;;;6.60;99.90;;;;;;5065242;28;20315;-82
2023/01/15 08:49:25;;;;;;;0.10;0.10;;;6.70;99.90;;;;;;5065059;28;20188;-81
2023/01/15 08:51:51;;;;;;;0.10;0.10;;;6.60;99.90;;;;;;5064757;28;20212;-82
2023/01/15 08:54:21;;;;;;;0.00;0.00;;;6.70;99.90;;;;;;5059644;28;20212;-81
2023/01/15 08:56:48;;;;;;;0.10;0.10;;;6.60;99.90;;;;;;5061543;28;20214;-82
2023/01/15 08:59:14;;;;;;;0.10;0.10;;;6.70;99.90;;;;;;5058516;28;20296;-82
2023/01/15 09:01:40;;;;;;;0.10;0.10;;;6.60;99.90;;;;;;5062927;28;20284;-81
2023/01/15 09:04:05;;;;;;;0.10;0.10;;;6.60;99.90;;;;;;5066153;28;20181;-81
2023/01/15 09:06:31;;;;;;;0.10;0.10;;;6.60;99.90;;;;;;5062160;28;20218;-82
2023/01/15 09:08:59;;;;;;;0.10;0.10;;;6.60;99.90;;;;;;5062013;28;20530;-82
2023/01/15 09:11:24;;;;;;;0.10;0.10;;;6.60;99.90;;;;;;5062249;28;20611;-82
2023/01/15 09:13:50;;;;;;;0.07;0.07;;;6.70;99.90;;;;;;5062860;28;20209;-81
2023/01/15 09:16:16;;;;;;;0.10;0.10;;;6.70;99.90;;;;;;5059892;28;20218;-83
2023/01/15 09:18:42;;;;;;;0.10;0.10;;;6.70;99.90;;;;;;5048523;28;20185;-83
2023/01/15 09:21:09;;;;;;;0.10;0.10;;;6.80;99.90;;;;;;5054050;28;20186;-82
2023/01/15 09:23:35;;;;;;;0.10;0.10;;;6.80;99.90;;;;;;5056737;28;20243;-82
2023/01/15 09:26:05;;;;;;;0.10;0.10;;;6.90;99.90;;;;;;5065681;28;20618;-83
2023/01/15 09:28:31;;;;;;;0.10;0.10;;;7.00;99.90;;;;;;5061352;28;20182;-83
2023/01/15 09:30:57;;;;;;;0.03;0.03;;;7.10;99.90;;;;;;5063059;28;20180;-82
2023/01/15 09:33:23;;;;;;;0.10;0.10;;;7.10;99.90;;;;;;5066562;28;20170;-83
2023/01/15 09:35:49;;;;;;;0.03;0.03;;;7.00;99.90;;;;;;5062609;28;20916;-82
2023/01/15 09:38:17;;;;;;;0.10;0.10;;;7.10;99.90;;;;;;5065983;28;20198;-83
2023/01/15 09:40:56;;;;;;;0.03;0.03;;;7.10;99.90;;;;;;5063343;28;20291;-82
2023/01/15 09:43:59;;;;;;;0.00;0.00;;;7.00;99.90;;;;;;5061190;28;20181;-82
2023/01/15 09:47:05;;;;;;;0.10;0.10;;;7.00;99.90;;;;;;5062449;28;20213;-82
2023/01/15 09:49:54;;;;;;;0.10;0.10;;;7.00;99.90;;;;;;5056773;28;20251;-82
2023/01/15 09:52:27;;;;;;;0.10;0.10;;;6.90;99.90;;;;;;5063395;28;20263;-82
2023/01/15 09:55:03;;;;;;;0.10;0.10;;;6.90;99.90;;;;;;5065399;28;21045;-82
2023/01/15 09:57:31;;;;;;;0.07;0.07;;;6.80;99.90;;;;;;5065002;28;20768;-83
2023/01/15 10:00:02;;;;;;;0.00;0.00;;;6.80;99.90;;;;;;5071772;28;20259;-82
2023/01/15 10:02:41;;;;;;;0.10;0.10;;;6.70;99.90;;;;;;5066639;28;20214;-82
2023/01/15 10:05:13;;;;;;;0.10;0.10;;;6.70;99.90;;;;;;5063465;28;20197;-82
2023/01/15 10:08:02;;;;;;;0.10;0.10;;;6.70;99.90;;;;;;5064750;28;20236;-83
2023/01/15 10:10:34;;;;;;;0.10;0.10;;;6.70;99.90;;;;;;5064361;28;20173;-81
2023/01/15 10:13:08;;;;;;;0.10;0.10;;;6.70;99.90;;;;;;5068205;28;20196;-82
2023/01/15 10:15:43;;;;;;;0.10;0.10;;;6.70;99.90;;;;;;5074076;28;20247;-83
2023/01/15 10:18:26;;;;;;;0.10;0.10;;;6.80;99.90;;;;;;5066238;28;20184;-82
2023/01/15 10:21:20;;;;;;;0.10;0.10;;;6.80;99.90;;;;;;5056951;28;20193;-82
2023/01/15 10:24:24;;;;;;;0.10;0.10;;;6.70;99.90;;;;;;5064613;28;21100;-83
2023/01/15 10:26:54;;;;;;;0.00;0.00;;;6.80;99.90;;;;;;5064558;28;20206;-82
2023/01/15 10:29:35;;;;;;;0.10;0.10;;;6.70;99.90;;;;;;5065254;28;20642;-82
2023/01/15 10:32:12;;;;;;;0.10;0.10;;;6.70;99.90;;;;;;5078545;28;20181;-81
2023/01/15 10:35:01;;;;;;;0.03;0.03;;;6.60;99.90;;;;;;5060230;28;20194;-81
2023/01/15 10:37:33;;;;;;;0.10;0.10;;;6.60;99.90;;;;;;5061838;28;20206;-81
2023/01/15 10:40:04;;;;;;;0.10;0.10;;;6.60;99.90;;;;;;5065604;28;20189;-81
2023/01/15 10:42:47;;;;;;;0.00;0.00;;;6.60;99.90;;;;;;5064753;28;20177;-80
2023/01/15 10:45:28;;;;;;;0.00;0.00;;;6.60;99.90;;;;;;5074389;28;20216;-81
2023/01/15 10:48:03;;;;;;;0.00;0.00;;;6.60;99.90;;;;;;5064122;28;20204;-81
2023/01/15 10:50:28;;;;;;;0.10;0.10;;;6.60;99.90;;;;;;5064251;28;20188;-81
2023/01/15 10:53:31;;;;;;;0.10;0.10;;;6.60;99.90;;;;;;5066683;28;20200;-81
2023/01/15 10:56:08;;;;;;;0.00;0.00;;;6.60;99.90;;;;;;5063645;28;20263;-83
2023/01/15 10:58:47;;;;;;;0.10;0.10;;;6.60;99.90;;;;;;5066414;28;20208;-83
2023/01/15 11:01:18;;;;;;;0.10;0.10;;;6.60;99.90;;;;;;5064195;28;20173;-81
2023/01/15 11:03:44;;;;;;;0.10;0.10;;;6.50;99.90;;;;;;5063555;28;20204;-82
2023/01/15 11:06:19;;;;;;;0.10;0.10;;;6.60;99.90;;;;;;5060638;28;20689;-81
2023/01/15 11:08:50;;;;;;;0.10;0.10;;;6.50;99.90;;;;;;5065986;28;20559;-81
2023/01/15 11:19:36;;;;;;;0.10;0.10;;;6.90;99.90;;;;;;5061899;28;20192;-81
2023/01/15 11:22:19;;;;;;;0.10;0.10;;;6.90;99.90;;;;;;5063406;28;20189;-82
2023/01/15 11:25:07;;;;;;;0.10;0.10;;;6.90;99.90;;;;;;5063047;28;20619;-81
2023/01/15 11:27:34;;;;;;;0.00;0.00;;;7.00;99.90;;;;;;5065877;28;20216;-81
2023/01/15 11:30:03;;;;;;;0.00;0.00;;;7.20;99.90;;;;;;5063479;28;20188;-80
2023/01/15 11:32:36;;;;;;;0.00;0.00;;;7.30;99.90;;;;;;5063160;28;20196;-81
2023/01/15 11:35:16;;;;;;;0.10;0.10;;;7.40;99.90;;;;;;5060739;28;20239;-81
2023/01/15 11:37:41;;;;;;;0.10;0.10;;;7.40;99.90;;;;;;5061115;28;20741;-81
2023/01/15 11:40:17;;;;;;;0.10;0.10;;;7.40;99.90;;;;;;5060167;28;20280;-82
2023/01/15 11:51:15;;;;;;;0.03;0.03;;;8.30;99.90;;;;;;5062738;28;20302;-82
2023/01/15 11:53:48;;;;;;;0.00;0.00;;;8.70;99.90;;;;;;5062310;28;20227;-82
2023/01/15 11:56:19;;;;;;;0.10;0.10;;;8.80;99.90;;;;;;5062326;28;20712;-82
2023/01/15 11:58:51;;;;;;;0.10;0.10;;;8.70;99.90;;;;;;5063304;28;20205;-82
2023/01/15 12:01:28;;;;;;;0.10;0.10;;;8.70;99.90;;;;;;5064117;28;20192;-82
2023/01/15 12:03:55;;;;;;;0.10;0.10;;;9.00;99.90;;;;;;5066411;28;20178;-82
2023/01/15 12:06:21;;;;;;;0.10;0.10;;;8.90;99.90;;;;;;5062569;28;20216;-82
2023/01/15 12:08:51;;;;;;;0.10;0.10;;;9.00;99.90;;;;;;5064518;28;20182;-82
2023/01/15 12:11:53;;;;;;;0.10;0.10;;;9.30;99.90;;;;;;5063939;28;20238;-82
2023/01/15 12:14:30;;;;;;;0.10;0.10;;;9.30;99.90;;;;;;5067585;28;20261;-82
2023/01/15 12:17:19;;;;;;;0.10;0.10;;;9.20;99.90;;;;;;5060897;28;20207;-82
2023/01/15 12:20:15;;;;;;;0.00;0.00;;;9.00;99.90;;;;;;5065948;28;20600;-82
2023/01/15 12:23:12;;;;;;;0.10;0.10;;;8.90;99.90;;;;;;5034274;28;20477;-82
2023/01/15 12:26:03;;;;;;;0.10;0.10;;;9.20;99.90;;;;;;5063072;28;20226;-82
2023/01/15 12:28:36;;;;;;;0.10;0.10;;;9.10;99.90;;;;;;5067314;28;20186;-82
2023/01/15 12:31:14;;;;;;;0.10;0.10;;;9.10;99.90;;;;;;5062995;28;20187;-82
2023/01/15 12:33:52;;;;;;;0.10;0.10;;;9.00;99.90;;;;;;5063956;28;20185;-82
2023/01/15 12:36:23;;;;;;;0.03;0.03;;;8.90;99.90;;;;;;5064601;28;20635;-81
2023/01/15 12:39:12;;;;;;;0.10;0.10;;;8.80;99.90;;;;;;5067297;28;20266;-82
2023/01/15 12:48:05;;;;;;;0.10;0.10;;;9.10;99.90;;;;;;5061836;28;20345;-82
2023/01/15 12:50:37;;;;;;;0.10;0.10;;;9.10;99.90;;;;;;5063294;28;20185;-81
2023/01/15 12:53:20;;;;;;;0.10;0.10;;;8.90;99.90;;;;;;5055974;28;20179;-80
2023/01/15 12:56:16;;;;;;;0.10;0.10;;;8.80;99.90;;;;;;5058190;28;20205;-81
2023/01/15 12:59:09;;;;;;;0.10;0.10;;;9.00;99.90;;;;;;5071097;28;20198;-81
2023/01/15 13:01:41;;;;;;;0.10;0.10;;;8.80;99.90;;;;;;5064807;28;20180;-80
2023/01/15 13:04:13;;;;;;;0.10;0.10;;;8.70;99.90;;;;;;5062258;28;20184;-81
2023/01/15 13:06:44;;;;;;;0.10;0.10;;;8.50;99.90;;;;;;5066295;28;20213;-81
2023/01/15 13:09:23;;;;;;;0.10;0.10;;;8.50;99.90;;;;;;5065068;28;20635;-80
2023/01/15 13:11:48;;;;;;;0.10;0.10;;;8.30;99.90;;;;;;5065106;28;20206;-81
2023/01/15 13:14:18;;;;;;;0.10;0.10;;;8.30;99.90;;;;;;5064693;28;20238;-81
2023/01/15 13:17:00;;;;;;;0.00;0.00;;;8.70;99.90;;;;;;5065894;28;20205;-81
2023/01/15 13:19:49;;;;;;;0.10;0.10;;;8.70;99.90;;;;;;5063618;28;20193;-81
2023/01/15 13:22:28;;;;;;;0.10;0.10;;;8.60;99.90;;;;;;5063969;28;21812;-81
2023/01/15 13:25:26;;;;;;;0.10;0.10;;;8.70;99.90;;;;;;5075223;28;20195;-81
2023/01/15 13:28:07;;;;;;;0.10;0.10;;;8.70;99.90;;;;;;5066339;28;20173;-81
2023/01/15 13:30:51;;;;;;;0.10;0.10;;;8.80;99.90;;;;;;5065752;28;20262;-81
2023/01/15 13:33:25;;;;;;;0.10;0.10;;;8.90;99.90;;;;;;5064526;28;20244;-81
2023/01/15 13:36:02;;;;;;;0.10;0.10;;;9.00;99.90;;;;;;5066560;28;20230;-81
2023/01/15 13:38:31;;;;;;;0.10;0.10;;;8.80;99.90;;;;;;5066583;28;20183;-81
2023/01/15 13:40:57;;;;;;;0.10;0.10;;;8.60;99.90;;;;;;5068667;28;20210;-81
2023/01/15 13:43:31;;;;;;;0.10;0.10;;;8.50;99.90;;;;;;5065684;28;20196;-81
2023/01/15 13:45:58;;;;;;;0.10;0.10;;;8.70;99.90;;;;;;5066787;28;20690;-81
2023/01/15 13:48:32;;;;;;;0.10;0.10;;;8.70;99.90;;;;;;5065636;28;20211;-81
2023/01/15 13:51:06;;;;;;;0.10;0.10;;;8.90;99.90;;;;;;5064379;28;20176;-81
2023/01/15 13:53:44;;;;;;;0.00;0.00;;;9.00;99.90;;;;;;5066003;28;20236;-81
2023/01/15 13:56:14;;;;;;;0.10;0.10;;;9.20;99.90;;;;;;5067025;28;20721;-81
2023/01/15 13:58:55;;;;;;;0.10;0.10;;;9.00;99.90;;;;;;5064359;28;20208;-81
2023/01/15 14:01:29;;;;;;;0.33;0.33;;;8.80;99.90;;;;;;5065454;28;20267;-81
2023/01/15 14:04:14;;;;;;;0.10;0.10;;;8.80;99.90;;;;;;5065045;28;20189;-81